• Join FlightAware (Why Join?)
  • Login
  • US Flag 
03:40AM EDT


 

Airport Tracker/Info


-or-


 

Live Flight TrackerFlight Track Log ✈ SWA378 ✈ 30-May-2013 ✈ KBWI - KALB

Flight Track Log - Related Links

Times and Time Zones

All times are in EDT time to prevent confusion due to time zone crossing. See the SWA378 flight status page for this flight to view local times or setup timezone preferences in your user account.

Time Position Orientation Groundspeed Altitude Reporting Facility
EDT Latitude Longitude Course Direction KTS MPH feet Rate Location/Type
10:12PM 39.1747 -76.7242 195° South 160 184 2,100  Level Washington Center
10:13PM 39.1372 -76.7369 195° South 177 204 3,900 2,400 Climbing Washington Center
10:14PM 39.1339 -76.6511 93° East 120 138 6,900 3,240 Climbing Washington Center
10:15PM 39.1389 -76.5497 86° East 205 236 10,400 3,000 Climbing Washington Center
10:16PM 39.1397 -76.4319 89° East 289 333 13,100 2,640 Climbing Washington Center
10:17PM 39.1447 -76.3036 87° East 316 364 15,800 2,820 Climbing Washington Center
10:18PM 39.1558 -76.1672 84° East 346 398 18,700 2,760 Climbing Washington Center
10:19PM 39.1753 -76.0306 80° East 377 434 21,300 2,400 Climbing Washington Center
10:20PM 39.1964 -75.8861 79° East 394 453 23,600 2,520 Climbing Washington Center
10:21PM 39.2739 -75.7739 48° Northeast 391 450 26,400 2,640 Climbing Washington Center
10:22PM 39.3550 -75.6722 44° Northeast 391 450 28,900 1,260 Climbing Washington Center
10:23PM 39.4364 -75.5672 45° Northeast 397 457 29,000  Climbing Washington Center
10:25PM 39.5817 -75.3769 45° Northeast 404 465 29,000  Level New York Center
10:26PM 39.6628 -75.2717 45° Northeast 409 471 29,000  Level New York Center
10:27PM 39.7447 -75.1472 49° Northeast 416 479 29,000  Level New York Center
10:28PM 39.8236 -75.0389 47° Northeast 421 484 29,000  Level New York Center
10:29PM 39.9006 -74.9325 47° Northeast 421 484 29,000  Level New York Center
10:30PM 39.9794 -74.8181 48° Northeast 421 484 29,000  Level New York Center
10:31PM 40.0575 -74.7303 41° Northeast 410 472 29,000  Level New York Center
10:32PM 40.1736 -74.6853 16° North 392 451 29,000  Level New York Center
10:33PM 40.2856 -74.6456 15° North 403 464 29,000  Level New York Center
10:34PM 40.3972 -74.6053 15° North 409 471 29,000  Level New York Center
10:35PM 40.5067 -74.5678 15° North 409 471 29,000 -360 Level New York Center
10:36PM 40.6206 -74.5306 14° North 409 471 28,300 -840 Descending New York Center
10:37PM 40.7344 -74.4875 16° North 409 471 27,400 -660 Descending New York Center
10:40PM 41.0142 -74.3906 15° North 418 481 26,000 -420 Descending Boston Center
10:41PM 41.1525 -74.3478 13° North 413 475 26,000  Level Boston Center
10:42PM 41.2658 -74.3042 16° North 413 475 26,000  Level Boston Center
10:43PM 41.3769 -74.2631 16° North 413 475 26,000 -60 Level Boston Center
10:44PM 41.4672 -74.2297 15° North 419 482 25,900 -1,260 Descending Boston Center
10:45PM 41.6056 -74.1808 15° North 419 482 23,500 -2,460 Descending Boston Center
10:46PM 41.7186 -74.1422 14° North 419 482 21,000 -2,520 Descending Boston Center
10:47PM 41.8067 -74.1083 16° North 407 468 18,700 -2,520 Descending Boston Center
10:48PM 41.9217 -74.0725 13° North 390 449 16,100 -2,400 Descending Boston Center
10:49PM 42.0097 -74.0411 15° North 387 445 14,100 -2,400 Descending Boston Center
10:50PM 42.1272 -73.9964 16° North 378 435 11,200 -1,680 Descending Boston Center
10:51PM 42.2150 -73.9650 15° North 324 373 10,600 -1,140 Descending Boston Center
10:52PM 42.2842 -73.9386 16° North 314 361 9,000 -1,920 Descending Boston Center
10:53PM 42.3742 -73.9042 16° North 284 327 6,800 -2,100 Descending Boston Center
10:54PM 42.4456 -73.8833 12° North 274 315 4,900 -1,980 Descending Boston Center
10:55PM 42.5231 -73.8514 17° North 278 320 2,900 -1,200 Descending Boston Center
10:56PM 42.5919 -73.8247 16° North 273 314 2,500 -300 Descending Boston Center
10:57PM 42.6611 -73.8008 14° North 256 295 2,300 -780 Descending Boston Center
10:58PM 42.6964 -73.8044 356° North 138 159 1,000 -1,020 Descending Boston Center
10:59PM 42.7361 -73.8111 353° North 128 147 300 -720 Descending Boston Center
11:03PM 42.7333 -73.8000 10° North  Level FlightAware Approximate